Time;durP1;ratioP1;P1;durP2;ratioP2;P2;SDS_P1;SDS_P2;PMS_P1;PMS_P2;Temp;Humidity;BMP_temperature;BMP_pressure;BME280_temperature;BME280_humidity;BME280_pressure;Samples;Min_cycle;Max_cycle;Signal;HPM_P1;HPM_P2
2021/12/23 00:02:45;;;;;;;255.03;96.57;;;;;;;-7.20;87.10;99928.39;3914368;90;21058;-78
2021/12/23 00:08:46;;;;;;;277.83;101.13;;;;;;;-6.93;87.54;99918.80;3925870;88;21094;-78
2021/12/23 00:14:50;;;;;;;261.10;100.23;;;;;;;-6.86;86.61;99911.99;3923824;90;21060;-78
2021/12/23 00:27:11;;;;;;;253.37;91.50;;;;;;;-6.97;86.32;99894.23;3995779;87;21052;-78
2021/12/23 00:33:12;;;;;;;263.10;99.90;;;;;;;-6.86;86.92;99888.81;4006468;87;21072;-78
2021/12/23 00:39:15;;;;;;;273.57;100.30;;;;;;;-6.75;86.63;99883.16;4001193;88;21919;-79
2021/12/23 00:45:16;;;;;;;254.33;98.43;;;;;;;-6.94;86.31;99874.56;4008394;87;21175;-78
2021/12/23 00:51:19;;;;;;;259.93;99.23;;;;;;;-6.98;86.40;99877.95;4004259;87;21099;-78
2021/12/23 00:57:27;;;;;;;262.40;99.10;;;;;;;-6.90;87.12;99861.08;4023032;86;21114;-79
2021/12/23 01:03:24;;;;;;;219.87;86.43;;;;;;;-6.86;86.66;99861.41;4033429;86;21079;-78
2021/12/23 01:09:25;;;;;;;239.50;90.50;;;;;;;-6.78;87.09;99851.70;4042662;86;21070;-80
2021/12/23 01:21:33;;;;;;;225.78;84.92;;;;;;;-6.87;86.47;99859.27;3925852;89;21082;-79
2021/12/23 01:27:37;;;;;;;168.80;65.87;;;;;;;-7.00;86.88;99851.58;3923264;89;21116;-78
2021/12/23 01:33:38;;;;;;;248.83;89.80;;;;;;;-7.08;86.72;99850.64;3987178;87;21368;-78
2021/12/23 01:39:39;;;;;;;246.30;90.37;;;;;;;-7.00;87.15;99839.60;3927542;89;21073;-78
2021/12/23 01:45:47;;;;;;;232.37;87.30;;;;;;;-6.90;86.94;99834.97;3939032;90;21097;-77
2021/12/23 01:51:49;;;;;;;237.40;88.80;;;;;;;-6.80;87.23;99828.49;3920831;89;21483;-78
2021/12/23 01:57:51;;;;;;;241.47;92.30;;;;;;;-6.76;87.15;99822.95;4037765;86;21093;-78
2021/12/23 02:03:52;;;;;;;230.57;88.43;;;;;;;-6.87;86.53;99815.86;4041785;86;21050;-78
2021/12/23 02:09:56;;;;;;;236.67;86.83;;;;;;;-6.94;86.65;99813.34;3997541;87;21123;-78
2021/12/23 02:15:58;;;;;;;213.50;81.07;;;;;;;-7.13;86.29;99802.68;3933282;88;21153;-77
2021/12/23 02:21:59;;;;;;;214.00;80.03;;;;;;;-7.13;86.82;99795.21;3918932;89;21091;-77
2021/12/23 02:28:07;;;;;;;223.67;85.43;;;;;;;-7.24;86.46;99784.94;3908173;90;21629;-78
2021/12/23 02:34:04;;;;;;;213.83;81.73;;;;;;;-7.30;86.62;99772.59;3919697;87;21172;-78
2021/12/23 02:40:08;;;;;;;174.73;69.83;;;;;;;-7.46;86.02;99769.91;3944403;88;21090;-79
2021/12/23 02:46:09;;;;;;;195.63;74.77;;;;;;;-7.76;85.81;99758.20;3929044;90;21174;-78
2021/12/23 02:52:11;;;;;;;196.53;74.33;;;;;;;-7.84;86.00;99755.11;3919065;88;21419;-78
2021/12/23 02:58:13;;;;;;;200.53;74.33;;;;;;;-7.77;86.54;99751.28;3865488;90;21383;-78
2021/12/23 03:04:14;;;;;;;205.97;75.47;;;;;;;-7.89;85.85;99751.05;3835558;91;21619;-78
2021/12/23 03:10:16;;;;;;;196.03;71.67;;;;;;;-7.97;86.01;99744.23;3901373;89;21884;-78
2021/12/23 03:16:24;;;;;;;192.00;72.27;;;;;;;-7.97;85.70;99727.52;3892021;90;21033;-78
2021/12/23 03:22:26;;;;;;;187.77;72.73;;;;;;;-8.13;85.92;99727.20;3902610;89;21133;-78
2021/12/23 03:28:28;;;;;;;196.70;69.03;;;;;;;-8.28;85.63;99715.00;3921886;88;21131;-78
2021/12/23 03:34:29;;;;;;;177.57;65.40;;;;;;;-8.26;86.00;99711.59;4009610;87;21113;-79
2021/12/23 03:40:30;;;;;;;176.37;66.37;;;;;;;-8.36;85.66;99712.71;3997163;87;21058;-77
2021/12/23 03:46:32;;;;;;;178.63;66.63;;;;;;;-8.54;85.92;99708.91;3988406;87;21076;-78
2021/12/23 03:52:34;;;;;;;167.80;62.20;;;;;;;-8.44;85.68;99698.47;4000337;87;21043;-77
2021/12/23 03:58:35;;;;;;;172.33;66.07;;;;;;;-8.41;85.98;99695.34;4027504;87;21065;-78
2021/12/23 04:04:37;;;;;;;180.37;65.43;;;;;;;-8.42;86.07;99687.10;4047197;86;21054;-77
2021/12/23 04:10:39;;;;;;;176.40;64.17;;;;;;;-8.53;85.48;99679.98;4060857;86;21053;-78
2021/12/23 04:16:40;;;;;;;171.23;66.20;;;;;;;-8.60;85.64;99669.22;4005358;88;21110;-78
2021/12/23 04:22:43;;;;;;;156.60;60.30;;;;;;;-8.67;85.64;99652.60;3935435;88;21169;-78
2021/12/23 04:28:48;;;;;;;158.27;62.00;;;;;;;-8.71;85.58;99656.27;4042248;86;21042;-78
2021/12/23 04:34:49;;;;;;;186.20;65.70;;;;;;;-8.82;85.48;99651.79;4058858;87;21060;-78
2021/12/23 04:40:50;;;;;;;181.50;70.33;;;;;;;-8.76;86.15;99660.14;4062068;86;21049;-78
2021/12/23 04:46:51;;;;;;;186.27;70.73;;;;;;;-8.72;85.80;99652.52;4060815;86;21088;-78
2021/12/23 04:52:53;;;;;;;214.27;72.50;;;;;;;-8.80;85.53;99646.25;4063300;86;21077;-78
2021/12/23 04:58:54;;;;;;;165.83;64.37;;;;;;;-8.89;85.74;99629.88;4028034;86;21080;-78
2021/12/23 05:04:55;;;;;;;219.93;79.87;;;;;;;-8.94;85.46;99625.78;4009851;87;21072;-78
2021/12/23 05:10:57;;;;;;;196.53;73.53;;;;;;;-8.97;85.76;99612.98;4004771;88;21631;-77
2021/12/23 05:16:58;;;;;;;191.70;69.97;;;;;;;-9.07;85.55;99606.67;4010837;87;21076;-78
2021/12/23 05:22:59;;;;;;;176.60;63.77;;;;;;;-9.21;85.35;99605.31;4008249;87;21632;-78
2021/12/23 05:29:00;;;;;;;161.03;59.43;;;;;;;-9.32;85.40;99594.20;4012320;87;21084;-77
2021/12/23 05:35:04;;;;;;;166.13;61.57;;;;;;;-9.28;85.98;99588.20;4003549;87;21300;-78
2021/12/23 05:41:05;;;;;;;170.30;60.10;;;;;;;-9.10;86.51;99592.55;4001049;87;21140;-77
2021/12/23 05:47:07;;;;;;;152.37;57.30;;;;;;;-9.11;85.65;99579.80;3997685;88;21777;-77
2021/12/23 05:53:08;;;;;;;141.10;52.10;;;;;;;-9.30;85.35;99570.92;4007374;87;21115;-76
2021/12/23 05:59:09;;;;;;;155.50;59.10;;;;;;;-9.44;85.31;99566.36;4001621;87;21149;-77
2021/12/23 06:05:10;;;;;;;152.53;59.10;;;;;;;-9.47;85.54;99564.19;3999325;89;21036;-77
2021/12/23 06:11:12;;;;;;;153.33;57.47;;;;;;;-9.53;85.71;99552.37;3992799;87;21081;-77
2021/12/23 06:17:13;;;;;;;162.30;57.80;;;;;;;-9.44;85.93;99559.74;3992532;89;21013;-76
2021/12/23 06:23:14;;;;;;;176.10;63.13;;;;;;;-9.49;86.11;99558.33;3988023;87;21060;-77
2021/12/23 06:29:16;;;;;;;163.43;61.40;;;;;;;-9.50;85.81;99555.88;3993645;87;21603;-76
2021/12/23 06:35:19;;;;;;;162.23;60.03;;;;;;;-9.48;85.52;99548.52;3977835;87;21047;-76
2021/12/23 06:41:21;;;;;;;162.70;58.47;;;;;;;-9.54;85.72;99546.80;3977087;87;21086;-76
2021/12/23 06:47:22;;;;;;;152.20;57.93;;;;;;;-9.54;85.69;99546.80;3955219;89;21677;-76
2021/12/23 06:53:24;;;;;;;157.43;63.43;;;;;;;-9.63;85.40;99536.27;3920955;90;21159;-76
2021/12/23 06:59:25;;;;;;;177.47;64.97;;;;;;;-9.62;85.78;99528.09;4013915;86;21121;-76
2021/12/23 07:05:26;;;;;;;160.73;60.80;;;;;;;-9.48;85.94;99526.80;3943193;88;21104;-76
2021/12/23 07:11:28;;;;;;;150.13;58.27;;;;;;;-9.25;86.95;99516.14;3935191;89;21075;-76
2021/12/23 07:17:29;;;;;;;165.03;60.60;;;;;;;-9.15;86.06;99516.35;3944620;88;21105;-76
2021/12/23 07:23:30;;;;;;;166.57;60.87;;;;;;;-9.02;86.60;99508.10;4015791;87;21604;-76
2021/12/23 07:29:32;;;;;;;174.03;64.77;;;;;;;-8.71;86.77;99502.34;3992923;87;21551;-76
2021/12/23 07:35:33;;;;;;;176.73;66.77;;;;;;;-8.43;86.89;99498.31;3980571;87;21014;-77
2021/12/23 07:41:39;;;;;;;154.43;60.93;;;;;;;-8.34;86.94;99500.03;3993573;87;21152;-77
2021/12/23 07:47:42;;;;;;;146.90;61.70;;;;;;;-8.05;86.87;99490.10;4000089;87;21086;-78
2021/12/23 07:53:44;;;;;;;154.63;63.13;;;;;;;-7.84;86.71;99484.84;3992204;88;21551;-77
2021/12/23 07:59:45;;;;;;;172.90;63.83;;;;;;;-7.66;87.04;99487.75;3952720;88;21057;-77
2021/12/23 08:05:46;;;;;;;168.63;65.90;;;;;;;-7.37;87.10;99478.55;3921902;90;21125;-77
2021/12/23 08:11:49;;;;;;;166.13;65.73;;;;;;;-7.08;87.16;99482.09;3910398;89;21139;-77
2021/12/23 08:17:51;;;;;;;173.33;65.93;;;;;;;-6.89;87.16;99471.39;3910682;90;21675;-77
2021/12/23 08:23:52;;;;;;;162.60;64.43;;;;;;;-6.69;87.22;99456.94;3923431;89;21111;-78
2021/12/23 08:29:54;;;;;;;157.10;61.77;;;;;;;-6.25;87.52;99450.95;3920319;89;21092;-78
2021/12/23 08:35:55;;;;;;;121.07;48.20;;;;;;;-6.07;87.20;99446.53;3921575;89;22371;-79
2021/12/23 08:41:57;;;;;;;126.80;48.80;;;;;;;-5.72;87.46;99445.40;3914740;89;21066;-79
2021/12/23 08:47:59;;;;;;;118.63;46.60;;;;;;;-5.40;86.95;99436.73;3936790;89;21059;-79
2021/12/23 08:54:00;;;;;;;111.73;44.03;;;;;;;-5.22;87.23;99422.94;3918897;90;21663;-78
2021/12/23 09:00:06;;;;;;;115.63;49.30;;;;;;;-4.88;87.16;99416.60;3888001;90;21250;-79
2021/12/23 09:06:07;;;;;;;129.87;52.60;;;;;;;-4.67;86.56;99424.11;3898250;89;21024;-78
2021/12/23 09:12:09;;;;;;;108.63;45.20;;;;;;;-4.49;86.07;99415.59;3886766;90;21688;-79
2021/12/23 09:18:11;;;;;;;122.50;52.77;;;;;;;-4.37;86.25;99412.11;3852358;91;21114;-79
2021/12/23 09:24:13;;;;;;;121.10;50.50;;;;;;;-4.36;86.50;99405.16;3939838;90;21076;-79
2021/12/23 09:36:34;;;;;;;113.20;47.90;;;;;;;-3.91;86.51;99372.18;3942819;89;21614;-79
2021/12/23 09:42:36;;;;;;;96.67;41.40;;;;;;;-3.61;86.28;99357.38;3908949;90;21624;-80
2021/12/23 09:48:45;;;;;;;91.70;39.37;;;;;;;-3.60;85.76;99333.02;3925198;89;21552;-80
2021/12/23 09:54:48;;;;;;;92.67;39.87;;;;;;;-3.24;85.71;99316.22;3847687;90;21189;-80
2021/12/23 10:00:51;;;;;;;121.03;52.13;;;;;;;-2.99;85.90;99313.92;3951104;88;21555;-79
2021/12/23 10:06:54;;;;;;;131.63;58.20;;;;;;;-2.74;85.86;99309.71;3974302;87;21689;-79
2021/12/23 10:31:53;;;;;;;87.70;37.23;;;;;;;-1.88;84.88;99240.70;4005925;87;21620;-78
2021/12/23 10:37:50;;;;;;;71.80;33.53;;;;;;;-1.89;84.33;99224.31;3980867;87;21107;-78
2021/12/23 10:44:02;;;;;;;76.37;33.20;;;;;;;-1.74;84.20;99209.37;3963008;88;21550;-79
2021/12/23 10:50:35;;;;;;;62.00;28.60;;;;;;;-1.62;84.30;99201.67;3966764;87;21163;-79
2021/12/23 11:03:18;;;;;;;52.23;21.83;;;;;;;-1.52;83.25;99161.81;3978732;87;21028;-78
2021/12/23 11:09:44;;;;;;;47.13;21.13;;;;;;;-1.36;83.24;99143.03;3966431;87;21959;-79
2021/12/23 11:40:55;;;;;;;36.23;16.17;;;;;;;-1.09;81.57;99060.61;3981461;88;21641;-79
2021/12/23 11:46:57;;;;;;;86.92;37.85;;;;;;;-0.96;81.49;99036.19;3977401;87;21091;-79
2021/12/23 11:53:02;;;;;;;63.17;30.00;;;;;;;-0.90;81.75;99034.45;3991204;87;21052;-79
2021/12/23 11:59:09;;;;;;;60.27;25.47;;;;;;;-0.97;81.84;99007.16;4013052;87;21416;-82
2021/12/23 12:05:17;;;;;;;56.87;23.97;;;;;;;-1.01;81.86;98991.95;4006889;88;21220;-79
2021/12/23 12:11:25;;;;;;;45.60;20.47;;;;;;;-0.93;81.72;98992.05;4002512;87;21035;-79
2021/12/23 12:17:33;;;;;;;49.23;20.12;;;;;;;-0.85;81.66;98990.01;3937408;90;21067;-80
2021/12/23 12:23:39;;;;;;;44.15;20.62;;;;;;;-0.81;81.38;98979.42;3933510;88;21548;-80
2021/12/23 12:29:42;;;;;;;44.65;20.92;;;;;;;-0.68;80.83;98953.89;4009220;87;21530;-80
2021/12/23 12:36:00;;;;;;;49.42;22.58;;;;;;;-0.68;80.83;98953.89;3933374;88;21111;-79
2021/12/23 12:42:07;;;;;;;53.65;23.15;;;;;;;-0.59;80.66;98921.14;3990226;88;21080;-80
2021/12/23 12:48:07;;;;;;;60.43;25.00;;;;;;;-0.48;80.26;98912.28;4039626;87;21074;-79
2021/12/23 12:54:25;;;;;;;56.05;25.77;;;;;;;-0.41;80.19;98891.92;4063395;86;22597;-80
2021/12/23 13:00:36;;;;;;;46.77;22.17;;;;;;;-0.36;79.70;98883.74;3913475;89;21186;-80
2021/12/23 13:06:40;;;;;;;54.77;23.95;;;;;;;-0.36;79.64;98873.55;3890915;89;21074;-80
2021/12/23 13:13:01;;;;;;;50.33;23.02;;;;;;;-0.38;79.72;98876.55;3825534;91;21109;-80
2021/12/23 13:19:24;;;;;;;37.40;17.03;;;;;;;-0.52;79.83;98840.83;3937245;90;21102;-80
2021/12/23 13:25:26;;;;;;;33.33;15.43;;;;;;;-0.37;79.68;98847.73;3941196;88;21107;-80
2021/12/23 13:31:31;;;;;;;39.27;17.92;;;;;;;-0.37;79.34;98840.48;3987292;87;21630;-81
2021/12/23 13:37:32;;;;;;;36.40;17.48;;;;;;;-0.41;79.74;98832.77;3972029;88;21058;-80
2021/12/23 13:43:33;;;;;;;36.88;17.17;;;;;;;-0.42;79.15;98839.25;3965053;87;21090;-80
2021/12/23 13:49:50;;;;;;;34.20;16.45;;;;;;;-0.39;79.35;98828.42;3947252;88;21354;-80
2021/12/23 13:55:51;;;;;;;40.80;18.57;;;;;;;-0.50;79.18;98794.84;3968468;88;21134;-80
2021/12/23 14:02:13;;;;;;;36.10;17.52;;;;;;;-0.51;79.03;98786.52;4027676;86;21033;-80
2021/12/23 14:08:15;;;;;;;40.40;18.35;;;;;;;-0.60;78.75;98769.01;4057067;86;21048;-80
2021/12/23 14:14:19;;;;;;;43.55;20.00;;;;;;;-0.67;78.64;98761.11;4056288;86;21084;-80
2021/12/23 14:26:45;;;;;;;39.70;19.17;;;;;;;-0.85;78.86;98733.89;4038446;86;20899;-80
2021/12/23 14:32:47;;;;;;;50.63;20.95;;;;;;;-0.86;78.92;98730.98;4040897;86;21076;-80
2021/12/23 14:39:01;;;;;;;52.10;20.15;;;;;;;-1.07;78.79;98717.78;3939723;88;22375;-80
2021/12/23 14:45:08;;;;;;;39.90;18.65;;;;;;;-1.10;78.85;98703.62;3942802;88;21165;-80
2021/12/23 14:51:13;;;;;;;42.30;17.60;;;;;;;-1.10;78.78;98690.19;4005597;87;21090;-80
2021/12/23 14:57:17;;;;;;;40.50;17.50;;;;;;;-1.17;78.76;98681.75;4042149;86;22428;-80
2021/12/23 15:03:25;;;;;;;42.60;19.07;;;;;;;-1.17;78.69;98675.84;4002827;87;21079;-81
2021/12/23 15:09:31;;;;;;;47.00;19.23;;;;;;;-1.17;78.69;98681.21;3978570;87;21121;-81
2021/12/23 15:15:33;;;;;;;46.95;20.50;;;;;;;-1.25;78.64;98679.83;3986591;87;21061;-80
2021/12/23 15:21:45;;;;;;;43.33;20.30;;;;;;;-1.37;78.67;98673.66;4004529;88;21037;-80
2021/12/23 15:27:46;;;;;;;48.17;21.90;;;;;;;-1.32;78.98;98667.36;3984771;87;21061;-80
2021/12/23 15:33:47;;;;;;;49.85;23.32;;;;;;;-1.35;78.94;98664.75;3975674;87;21673;-79
2021/12/23 15:39:50;;;;;;;47.93;21.70;;;;;;;-1.41;79.28;98639.13;3985854;87;21017;-80
2021/12/23 15:45:55;;;;;;;50.63;22.22;;;;;;;-1.43;79.05;98615.00;4002479;87;21024;-80
2021/12/23 15:51:56;;;;;;;47.13;24.35;;;;;;;-1.59;79.08;98611.90;4000174;88;21092;-80
2021/12/23 15:57:58;;;;;;;49.70;21.35;;;;;;;-1.68;78.96;98601.09;3975780;87;21085;-79
2021/12/23 16:03:59;;;;;;;74.87;32.03;;;;;;;-1.84;79.19;98589.69;4033527;87;21087;-80
2021/12/23 16:10:06;;;;;;;81.03;37.03;;;;;;;-1.74;79.26;98566.66;4036975;86;21053;-79
2021/12/23 16:16:09;;;;;;;62.60;28.73;;;;;;;-1.76;78.96;98551.40;3937442;90;21067;-80
2021/12/23 16:22:12;;;;;;;52.90;25.10;;;;;;;-1.81;79.05;98547.48;4002861;87;21098;-80
2021/12/23 16:28:13;;;;;;;50.03;26.93;;;;;;;-1.95;79.11;98528.78;3933854;88;21629;-79
2021/12/23 16:34:14;;;;;;;42.50;24.47;;;;;;;-1.90;79.25;98520.62;4004624;88;21037;-79
2021/12/23 16:40:24;;;;;;;53.77;28.87;;;;;;;-1.75;78.87;98509.50;4029800;86;21101;-79
2021/12/23 16:46:26;;;;;;;43.80;20.00;;;;;;;-1.63;78.96;98501.67;3943910;88;21119;-80
2021/12/23 16:52:29;;;;;;;48.80;25.03;;;;;;;-1.55;78.86;98499.35;4010075;87;21272;-80
2021/12/23 16:58:31;;;;;;;52.53;27.23;;;;;;;-1.65;78.73;98501.75;4022549;86;21140;-80
2021/12/23 17:04:32;;;;;;;69.93;32.23;;;;;;;-1.68;79.02;98484.34;3897679;89;21584;-80
2021/12/23 17:10:35;;;;;;;57.73;26.70;;;;;;;-1.69;79.05;98468.55;3927906;89;21118;-79
2021/12/23 17:16:37;;;;;;;56.03;23.97;;;;;;;-1.63;79.27;98457.95;3989995;87;21056;-79
2021/12/23 17:22:39;;;;;;;64.10;33.70;;;;;;;-1.69;79.11;98442.52;3963959;88;21616;-79
2021/12/23 17:28:40;;;;;;;58.07;24.37;;;;;;;-1.62;79.14;98432.69;3986418;87;21052;-80
2021/12/23 17:34:43;;;;;;;46.73;21.43;;;;;;;-1.58;79.36;98433.64;3987333;87;21183;-80
2021/12/23 17:40:44;;;;;;;61.77;27.27;;;;;;;-1.66;79.38;98421.00;3977781;87;21136;-79
2021/12/23 17:46:46;;;;;;;58.53;27.00;;;;;;;-1.67;79.45;98402.76;4006049;87;21088;-80
2021/12/23 17:52:48;;;;;;;55.67;27.73;;;;;;;-1.64;79.25;98374.50;3884572;87;9999864;-80
2021/12/23 17:58:49;;;;;;;47.63;21.40;;;;;;;-1.52;79.22;98358.61;3994797;87;21052;-80
2021/12/23 18:04:51;;;;;;;38.28;17.10;;;;;;;-1.47;79.16;98345.02;4016480;87;21050;-79
2021/12/23 18:10:54;;;;;;;40.53;19.47;;;;;;;-1.38;79.05;98339.14;4008702;87;21146;-79
2021/12/23 18:16:55;;;;;;;61.53;22.40;;;;;;;-1.31;78.99;98308.58;4044965;86;21058;-80
2021/12/23 18:22:56;;;;;;;38.70;17.17;;;;;;;-1.12;77.46;98281.42;4047399;86;21621;-80
2021/12/23 18:29:00;;;;;;;39.80;17.53;;;;;;;-1.06;78.11;98253.29;4052425;86;21038;-80
2021/12/23 18:35:01;;;;;;;41.25;19.27;;;;;;;-1.01;78.21;98258.50;4054203;86;21105;-80
2021/12/23 18:41:04;;;;;;;41.67;19.47;;;;;;;-1.04;78.31;98284.12;4052886;86;21046;-79
2021/12/23 18:47:08;;;;;;;40.85;19.05;;;;;;;-1.05;78.37;98295.95;4052104;87;21140;-80
2021/12/23 18:53:10;;;;;;;45.67;20.70;;;;;;;-1.03;78.53;98317.92;3933186;86;9999896;-80
2021/12/23 18:59:11;;;;;;;61.97;25.67;;;;;;;-1.10;79.27;98328.36;4051495;86;21037;-79
2021/12/23 19:05:25;;;;;;;65.17;26.83;;;;;;;-1.09;78.96;98337.99;4059737;86;21113;-80
2021/12/23 19:11:30;;;;;;;72.92;31.05;;;;;;;-1.03;79.31;98323.84;4001078;88;21144;-80
2021/12/23 19:17:31;;;;;;;;;;;;;;;-1.06;79.00;98302.44;4043368;86;21094;-80
2021/12/23 19:23:32;;;;;;;83.97;34.80;;;;;;;-1.04;79.03;98294.06;4056414;86;20128;-80
2021/12/23 19:29:34;;;;;;;131.33;55.63;;;;;;;-1.16;79.00;98305.42;3922551;86;9999925;-80
2021/12/23 19:35:35;;;;;;;116.62;55.10;;;;;;;-1.26;78.97;98307.63;4015698;87;21129;-79
2021/12/23 19:41:36;;;;;;;130.67;54.10;;;;;;;-1.24;79.36;98294.69;4003340;87;21619;-79
2021/12/23 19:47:40;;;;;;;234.25;96.97;;;;;;;-1.28;79.49;98267.67;4008383;87;21067;-79
2021/12/23 19:53:42;;;;;;;212.48;92.53;;;;;;;-1.27;79.52;98263.90;3943831;89;21081;-79
2021/12/23 19:59:44;;;;;;;122.75;55.10;;;;;;;-1.20;79.70;98244.06;3920294;90;21968;-80
2021/12/23 20:05:47;;;;;;;188.50;82.53;;;;;;;-1.17;79.64;98270.83;3938656;89;21060;-79
2021/12/23 20:11:49;;;;;;;213.18;83.10;;;;;;;-1.26;80.03;98263.33;3840867;91;21059;-79
2021/12/23 20:17:50;;;;;;;151.35;68.00;;;;;;;-1.21;80.02;98239.01;3915346;90;21131;-80
2021/12/23 20:23:51;;;;;;;257.10;99.70;;;;;;;-1.23;80.24;98231.27;3915269;89;21167;-80
2021/12/23 20:29:53;;;;;;;128.82;49.30;;;;;;;-1.28;80.11;98203.23;3771048;89;9999890;-80
2021/12/23 20:35:54;;;;;;;198.70;74.90;;;;;;;-1.32;80.18;98176.79;3845630;90;21105;-80
2021/12/23 20:41:57;;;;;;;169.60;63.53;;;;;;;-1.39;80.53;98168.98;3926460;89;21128;-80
2021/12/23 20:47:58;;;;;;;145.50;56.37;;;;;;;-1.35;80.55;98160.52;3913070;90;22005;-79
2021/12/23 20:54:00;;;;;;;79.77;29.90;;;;;;;-1.29;80.42;98149.84;3875391;89;21116;-80
2021/12/23 21:00:04;;;;;;;45.33;18.37;;;;;;;-1.24;80.47;98137.60;3828188;91;21113;-80
2021/12/23 21:06:06;;;;;;;38.95;17.27;;;;;;;-1.17;80.38;98131.17;3927895;89;21099;-80
2021/12/23 21:12:08;;;;;;;42.62;17.67;;;;;;;-1.09;80.18;98128.48;3894109;90;21093;-80
2021/12/23 21:18:10;;;;;;;44.15;17.52;;;;;;;-0.98;80.05;98117.63;3892180;90;21048;-80
2021/12/23 21:24:11;;;;;;;48.55;19.57;;;;;;;-0.85;79.28;98092.47;3904496;90;21640;-80
2021/12/23 21:30:13;;;;;;;37.57;15.70;;;;;;;-0.81;79.66;98075.92;3896602;89;21091;-80
2021/12/23 21:36:14;;;;;;;37.42;16.32;;;;;;;-0.78;79.77;98067.21;3904571;89;21040;-80
2021/12/23 21:42:15;;;;;;;38.55;17.92;;;;;;;-0.75;79.94;98061.77;3890679;89;21166;-80
2021/12/23 21:48:17;;;;;;;41.63;19.12;;;;;;;-0.73;79.87;98050.91;3918813;90;21622;-81
2021/12/23 21:54:18;;;;;;;40.40;17.67;;;;;;;-0.71;80.47;98041.17;3929577;89;21100;-80
2021/12/23 22:00:23;;;;;;;33.25;15.03;;;;;;;-0.71;80.36;98023.16;3899819;90;21581;-79
2021/12/23 22:06:26;;;;;;;30.27;12.82;;;;;;;-0.73;80.17;98002.53;3854541;89;21096;-80
2021/12/23 22:12:27;;;;;;;29.87;13.57;;;;;;;-0.68;80.20;97998.88;4029337;87;21044;-80
2021/12/23 22:18:29;;;;;;;37.60;14.95;;;;;;;-0.66;80.26;97973.80;4002416;87;21575;-80
2021/12/23 22:24:32;;;;;;;23.45;11.88;;;;;;;-0.63;80.14;97959.17;4021667;87;21089;-80
2021/12/23 22:30:34;;;;;;;21.82;10.75;;;;;;;-0.52;79.40;97944.77;4001549;87;21776;-80
2021/12/23 22:36:36;;;;;;;19.70;9.85;;;;;;;-0.41;79.60;97934.62;4019592;87;21095;-80
2021/12/23 22:42:39;;;;;;;23.52;10.23;;;;;;;-0.36;79.19;97917.52;4013609;87;21596;-81
2021/12/23 22:48:40;;;;;;;23.25;10.85;;;;;;;-0.32;79.56;97894.22;4013039;87;21046;-81
2021/12/23 22:54:42;;;;;;;25.43;10.43;;;;;;;-0.39;79.47;97859.00;4022865;87;21119;-81
2021/12/23 23:00:51;;;;;;;30.20;12.93;;;;;;;-0.26;79.33;97869.48;4024797;87;21627;-80
2021/12/23 23:06:52;;;;;;;24.30;10.58;;;;;;;-0.27;79.81;97846.38;4001619;87;21088;-81
2021/12/23 23:13:00;;;;;;;22.15;9.68;;;;;;;-0.21;79.94;97832.19;4023659;87;22441;-81
2021/12/23 23:19:00;;;;;;;20.23;10.28;;;;;;;-0.21;80.24;97837.56;4021659;87;21169;-81
2021/12/23 23:25:09;;;;;;;16.93;8.28;;;;;;;-0.21;80.74;97823.56;3851959;91;21064;-80
2021/12/23 23:43:45;;;;;;;24.18;11.93;;;;;;;-0.20;81.27;97793.40;4016919;87;21075;-82
2021/12/23 23:49:47;;;;;;;19.98;10.98;;;;;;;-0.22;81.64;97791.05;4014316;87;21091;-81
2021/12/23 23:55:59;;;;;;;22.50;11.80;;;;;;;-0.22;81.97;97784.90;4008498;87;21048;-81
